createdAt,value
2023-06-14T16:03:30.646Z,32.38
2023-06-14T16:08:40.913Z,32.38
2023-06-14T16:13:45.654Z,32.37
2023-06-14T16:18:50.514Z,32.06
2023-06-14T16:23:54.081Z,32.40
2023-06-14T16:28:57.997Z,32.76
2023-06-14T16:34:02.859Z,32.95
2023-06-14T16:39:06.499Z,32.90
2023-06-14T16:44:10.873Z,32.25
2023-06-14T16:49:16.019Z,32.25
2023-06-14T16:54:20.201Z,32.46
2023-06-14T16:59:23.803Z,32.55
2023-06-14T17:04:28.786Z,32.93
2023-06-14T17:09:32.395Z,33.05
2023-06-14T17:14:36.245Z,33.05
2023-06-14T17:19:41.084Z,33.24
2023-06-14T17:24:44.597Z,33.48
2023-06-14T17:29:48.152Z,33.75
2023-06-14T17:34:53.061Z,34.24
2023-06-14T17:39:56.670Z,34.24
2023-06-14T17:45:01.430Z,34.24
2023-06-14T17:50:07.686Z,34.24
2023-06-14T17:55:11.464Z,100.00
2023-06-14T18:00:16.268Z,34.24
2023-06-14T18:05:21.456Z,34.24
2023-06-14T18:10:25.164Z,34.24
2023-06-14T18:15:28.706Z,34.24
2023-06-14T18:20:34.682Z,100.00
2023-06-14T18:25:38.314Z,100.00
2023-06-14T18:30:41.945Z,100.00
2023-06-14T18:35:47.189Z,100.00
2023-06-14T18:40:52.731Z,100.00
2023-06-14T18:45:56.877Z,34.24
2023-06-14T18:51:01.941Z,100.00
2023-06-14T18:56:05.461Z,100.00
2023-06-14T19:01:09.110Z,100.00
2023-06-14T19:06:14.076Z,100.00
2023-06-14T19:11:17.616Z,100.00
2023-06-14T19:16:21.239Z,100.00
2023-06-14T19:21:26.176Z,100.00
2023-06-14T19:26:31.300Z,100.00
2023-06-14T19:31:34.924Z,100.00
2023-06-14T19:36:39.978Z,100.00
2023-06-14T19:41:44.862Z,100.00
2023-06-14T19:46:48.420Z,100.00
2023-06-14T19:51:53.316Z,100.00
2023-06-14T19:56:56.879Z,100.00
2023-06-14T20:02:00.589Z,100.00
2023-06-14T20:07:07.269Z,100.00
2023-06-14T20:12:11.099Z,100.00
2023-06-14T20:17:14.807Z,100.00
2023-06-14T20:22:19.732Z,100.00
2023-06-14T20:27:23.246Z,100.00
2023-06-14T20:32:28.030Z,100.00
2023-06-14T20:37:33.078Z,100.00
2023-06-14T20:42:36.579Z,100.00
2023-06-14T20:47:40.164Z,100.00
2023-06-14T20:52:45.280Z,100.00
2023-06-14T20:57:49.486Z,100.00
2023-06-14T21:02:53.462Z,100.00
2023-06-14T21:07:58.988Z,100.00
2023-06-14T21:13:02.510Z,100.00
2023-06-14T21:18:06.122Z,100.00
2023-06-14T21:23:11.947Z,100.00
2023-06-14T21:28:15.553Z,100.00
2023-06-14T21:33:19.642Z,100.00
2023-06-14T21:38:24.472Z,100.00
2023-06-14T21:43:28.001Z,100.00
2023-06-14T21:48:31.520Z,100.00
2023-06-14T21:53:36.586Z,100.00
2023-06-14T21:58:40.088Z,100.00
2023-06-14T22:03:43.664Z,100.00
2023-06-14T22:08:48.580Z,100.00
2023-06-14T22:13:52.723Z,100.00
2023-06-14T22:18:58.368Z,100.00
2023-06-14T22:24:04.356Z,100.00
2023-06-14T22:29:08.009Z,100.00
2023-06-14T22:34:11.730Z,100.00
2023-06-14T22:39:16.754Z,100.00
2023-06-14T22:44:20.277Z,100.00
2023-06-14T22:49:24.807Z,100.00
2023-06-14T22:54:30.539Z,100.00
2023-06-14T22:59:34.304Z,100.00
2023-06-14T23:04:39.429Z,100.00
2023-06-14T23:09:44.564Z,100.00
2023-06-14T23:14:49.733Z,100.00
2023-06-14T23:19:53.242Z,100.00
2023-06-14T23:24:59.716Z,100.00
2023-06-14T23:30:05.258Z,100.00
2023-06-14T23:35:09.596Z,100.00
2023-06-14T23:40:15.934Z,100.00
2023-06-14T23:45:20.533Z,100.00
2023-06-14T23:50:24.732Z,100.00
2023-06-14T23:55:30.785Z,100.00
